Time;durP1;ratioP1;P1;durP2;ratioP2;P2;SDS_P1;SDS_P2;PMS_P1;PMS_P2;Temp;Humidity;BMP_temperature;BMP_pressure;BME280_temperature;BME280_humidity;BME280_pressure;Samples;Min_cycle;Max_cycle;Signal;HPM_P1;HPM_P2
2022/08/30 00:07:05;;;;;;;8.83;7.33;;;;;19.20;99075.00;;;;16659827;28;20222;-50
2022/08/30 00:15:10;;;;;;;8.80;7.17;;;;;19.10;99083.00;;;;16658799;28;20586;-50
2022/08/30 00:23:13;;;;;;;7.40;6.70;;;;;19.00;99079.00;;;;16658003;28;20193;-50
2022/08/30 00:31:17;;;;;;;8.13;7.40;;;;;19.00;99080.00;;;;16673419;28;20687;-49
2022/08/30 00:39:19;;;;;;;7.93;7.10;;;;;19.00;99093.00;;;;16657537;28;20245;-49
2022/08/30 00:47:23;;;;;;;7.80;7.10;;;;;18.90;99085.00;;;;16656352;28;20317;-50
2022/08/30 00:55:28;;;;;;;8.57;7.63;;;;;18.60;99085.00;;;;16655430;28;20625;-51
2022/08/30 01:03:32;;;;;;;12.83;8.30;;;;;18.60;99091.00;;;;16656573;28;20199;-48
2022/08/30 01:11:37;;;;;;;8.80;7.90;;;;;18.40;99092.00;;;;16654671;28;20227;-48
2022/08/30 01:19:44;;;;;;;8.37;7.43;;;;;18.60;99092.00;;;;16655164;28;20226;-48
2022/08/30 01:27:52;;;;;;;7.63;7.00;;;;;18.90;99093.00;;;;16657265;28;20704;-47
2022/08/30 01:35:56;;;;;;;10.90;8.37;;;;;18.40;99090.00;;;;16692500;28;20653;-49
2022/08/30 01:44:02;;;;;;;9.57;8.63;;;;;18.20;99088.00;;;;16695734;28;20602;-48
2022/08/30 01:52:05;;;;;;;9.83;8.00;;;;;18.30;99102.00;;;;16667748;28;20275;-48
2022/08/30 02:00:13;;;;;;;9.67;8.70;;;;;18.40;99106.00;;;;16652389;28;20309;-47
2022/08/30 02:08:15;;;;;;;12.27;8.83;;;;;18.00;99115.00;;;;16667417;28;20226;-48
2022/08/30 02:16:21;;;;;;;9.80;8.50;;;;;18.20;99111.00;;;;16652103;28;20310;-48
2022/08/30 02:24:24;;;;;;;10.03;8.30;;;;;18.00;99102.00;;;;16651846;28;20578;-48
2022/08/30 02:32:28;;;;;;;9.63;8.57;;;;;18.10;99092.00;;;;16651572;28;20950;-49
2022/08/30 02:40:30;;;;;;;9.30;8.40;;;;;18.10;99095.00;;;;16667513;28;20221;-48
2022/08/30 02:48:34;;;;;;;8.77;7.87;;;;;18.10;99076.00;;;;16653085;28;20260;-48
2022/08/30 02:56:36;;;;;;;9.10;7.87;;;;;17.90;99077.00;;;;16664099;28;20637;-47
2022/08/30 03:04:42;;;;;;;12.00;8.70;;;;;17.90;99084.00;;;;16663198;28;20628;-48
2022/08/30 03:12:46;;;;;;;9.70;8.90;;;;;17.80;99078.00;;;;16662377;28;20592;-47
2022/08/30 03:20:50;;;;;;;10.50;9.00;;;;;17.70;99075.00;;;;16661129;28;20227;-48
2022/08/30 03:28:53;;;;;;;10.20;9.20;;;;;17.90;99061.00;;;;16661645;28;20226;-50
2022/08/30 03:36:57;;;;;;;9.23;8.23;;;;;17.80;99064.00;;;;16661270;28;20213;-50
2022/08/30 03:45:01;;;;;;;10.40;9.40;;;;;17.70;99064.00;;;;16675890;28;20279;-50
2022/08/30 03:53:04;;;;;;;9.33;8.47;;;;;18.00;99061.00;;;;16654377;28;20245;-50
2022/08/30 04:01:07;;;;;;;10.17;8.37;;;;;17.50;99073.00;;;;16625146;22;20266;-49
2022/08/30 04:09:11;;;;;;;11.30;10.30;;;;;17.60;99073.00;;;;16554275;28;20224;-48
2022/08/30 04:17:14;;;;;;;11.57;10.37;;;;;17.70;99070.00;;;;16552380;28;20610;-48
2022/08/30 04:25:17;;;;;;;13.87;9.10;;;;;17.70;99082.00;;;;16550121;28;20226;-48
2022/08/30 04:33:20;;;;;;;10.43;9.43;;;;;17.20;99078.00;;;;16549836;28;20250;-48
2022/08/30 04:41:24;;;;;;;16.77;10.90;;;;;17.20;99077.00;;;;16526017;28;20302;-49
2022/08/30 04:49:26;;;;;;;11.50;10.40;;;;;17.40;99088.00;;;;16541417;28;20215;-49
2022/08/30 04:57:30;;;;;;;10.77;9.87;;;;;17.00;99092.00;;;;16524464;28;20259;-49
2022/08/30 05:05:41;;;;;;;11.17;10.00;;;;;17.50;99106.00;;;;16524364;28;20734;-48
2022/08/30 05:13:46;;;;;;;11.20;10.20;;;;;17.40;99104.00;;;;16524005;28;20648;-48
2022/08/30 05:21:48;;;;;;;11.63;10.43;;;;;17.70;99123.00;;;;16547146;28;20306;-48
2022/08/30 05:29:52;;;;;;;12.00;10.90;;;;;17.70;99135.00;;;;16521733;28;20231;-49
2022/08/30 05:37:54;;;;;;;10.37;9.47;;;;;18.40;99117.00;;;;16530342;28;20224;-48
2022/08/30 05:46:01;;;;;;;12.20;10.43;;;;;19.40;99111.00;;;;16521102;28;20299;-49
2022/08/30 05:54:04;;;;;;;13.93;12.47;;;;;20.10;99092.00;;;;16521223;28;20228;-49
2022/08/30 06:02:08;;;;;;;13.57;12.27;;;;;20.30;99089.00;;;;16521341;28;20283;-49
2022/08/30 06:10:11;;;;;;;16.70;12.20;;;;;20.40;99104.00;;;;16521504;28;20219;-48
2022/08/30 06:18:15;;;;;;;12.60;11.43;;;;;20.90;99102.00;;;;16520652;28;20232;-49
2022/08/30 06:26:18;;;;;;;13.67;12.37;;;;;21.70;99103.00;;;;16530261;28;20280;-50
2022/08/30 06:34:22;;;;;;;13.50;12.10;;;;;22.30;99092.00;;;;16553907;28;20664;-49
2022/08/30 06:42:30;;;;;;;12.33;11.10;;;;;22.50;99085.00;;;;16532446;28;20299;-50
2022/08/30 06:50:34;;;;;;;10.30;9.40;;;;;22.90;99083.00;;;;16532744;28;20232;-50
2022/08/30 06:58:38;;;;;;;10.53;9.53;;;;;23.30;99080.00;;;;16531225;28;20216;-50
2022/08/30 07:06:41;;;;;;;9.40;8.50;;;;;23.50;99072.00;;;;16531475;28;20303;-49
2022/08/30 07:14:44;;;;;;;10.83;9.77;;;;;23.90;99073.00;;;;16506326;28;20228;-49
2022/08/30 07:22:50;;;;;;;11.40;8.60;;;;;24.30;99067.00;;;;16526303;28;20219;-49
2022/08/30 07:30:52;;;;;;;9.40;8.30;;;;;25.10;99068.00;;;;16547964;28;20277;-49
2022/08/30 07:38:56;;;;;;;11.17;9.10;;;;;25.30;99074.00;;;;16528005;28;20310;-49
2022/08/30 07:46:58;;;;;;;9.90;9.00;;;;;25.50;99084.00;;;;16529019;28;20219;-48
2022/08/30 07:55:05;;;;;;;9.60;8.70;;;;;26.10;99077.00;;;;16579508;28;20227;-49
2022/08/30 08:03:08;;;;;;;11.83;10.33;;;;;26.10;99077.00;;;;16556733;28;20246;-49
2022/08/30 08:11:14;;;;;;;12.83;11.20;;;;;26.30;99075.00;;;;16554906;28;20571;-47
2022/08/30 08:19:18;;;;;;;13.17;10.93;;;;;26.90;99077.00;;;;16552351;28;20552;-49
2022/08/30 08:27:23;;;;;;;12.20;11.07;;;;;26.50;99076.00;;;;16550250;28;20224;-48
2022/08/30 08:35:26;;;;;;;11.87;10.70;;;;;27.30;99079.00;;;;16552885;28;20227;-49
2022/08/30 08:43:32;;;;;;;10.40;8.87;;;;;27.10;99074.00;;;;16548649;28;20195;-49
2022/08/30 09:00:00;;;;;;;11.70;9.10;;;;;27.50;99056.00;;;;16553667;28;20258;-49
2022/08/30 09:08:04;;;;;;;9.50;8.53;;;;;28.30;99067.00;;;;16548676;28;20215;-49
2022/08/30 09:16:08;;;;;;;12.60;11.30;;;;;27.80;99062.00;;;;16540486;28;20239;-49
2022/08/30 09:24:15;;;;;;;12.53;8.83;;;;;28.50;99051.00;;;;16545266;28;20200;-49
2022/08/30 09:32:28;;;;;;;9.17;8.43;;;;;28.90;99033.00;;;;16547046;28;20704;-50
2022/08/30 09:40:37;;;;;;;8.73;8.03;;;;;28.80;99023.00;;;;16528218;28;20224;-49
2022/08/30 09:48:43;;;;;;;8.27;7.40;;;;;30.20;99017.00;;;;16521691;28;20216;-50
2022/08/30 09:56:53;;;;;;;7.10;6.40;;;;;30.30;99011.00;;;;16545328;22;20238;-85
2022/08/30 10:05:02;;;;;;;12.13;6.37;;;;;30.70;98998.00;;;;16642069;28;20211;-84
2022/08/30 10:13:33;;;;;;;7.10;5.63;;;;;31.00;98997.00;;;;16652409;28;20280;-84
2022/08/30 10:21:40;;;;;;;6.53;6.03;;;;;30.10;98983.00;;;;16642572;28;20253;-85
2022/08/30 10:29:46;;;;;;;7.10;5.57;;;;;30.00;98979.00;;;;16660312;28;20225;-86
2022/08/30 10:37:52;;;;;;;5.57;5.07;;;;;30.90;98972.00;;;;16653011;28;20202;-85
2022/08/30 10:45:59;;;;;;;6.87;6.17;;;;;31.60;98966.00;;;;16656052;28;20222;-84
2022/08/30 10:54:10;;;;;;;6.40;5.90;;;;;32.40;98957.00;;;;16645279;28;20210;-84
2022/08/30 11:02:43;;;;;;;4.80;4.50;;;;;33.20;98958.00;;;;16669643;28;20262;-85
2022/08/30 11:10:55;;;;;;;5.20;4.70;;;;;33.30;98953.00;;;;16644860;28;20234;-84
2022/08/30 11:18:58;;;;;;;6.67;6.00;;;;;32.50;98948.00;;;;16678961;28;20206;-85
2022/08/30 11:27:03;;;;;;;5.90;5.40;;;;;34.50;98958.00;;;;16672168;28;20245;-84
2022/08/30 11:35:06;;;;;;;6.93;5.33;;;;;35.50;98959.00;;;;16669172;28;20222;-84
2022/08/30 11:43:44;;;;;;;5.83;5.33;;;;;34.70;98960.00;;;;16668248;28;20319;-84
2022/08/30 11:52:11;;;;;;;5.63;5.13;;;;;33.90;98956.00;;;;16666537;22;20262;-49
2022/08/30 12:00:28;;;;;;;5.53;5.03;;;;;34.50;98954.00;;;;16618021;28;20761;-49
2022/08/30 12:08:51;;;;;;;5.90;5.40;;;;;33.30;98958.00;;;;16593402;28;20227;-49
2022/08/30 12:25:27;;;;;;;5.70;5.27;;;;;33.80;98946.00;;;;16586814;28;20203;-49
2022/08/30 12:33:39;;;;;;;5.70;5.23;;;;;34.40;98947.00;;;;16592666;28;20231;-49
2022/08/30 12:41:44;;;;;;;5.17;4.87;;;;;36.00;98936.00;;;;16592047;28;20207;-50
2022/08/30 12:49:47;;;;;;;5.97;5.47;;;;;35.30;98937.00;;;;16591980;28;20227;-49
2022/08/30 12:58:00;;;;;;;5.73;5.03;;;;;36.70;98936.00;;;;16590075;28;20219;-48
2022/08/30 13:06:02;;;;;;;6.20;5.67;;;;;33.70;98932.00;;;;16584011;28;20230;-49
2022/08/30 13:14:39;;;;;;;5.37;4.97;;;;;35.40;98923.00;;;;16591053;28;20346;-49
2022/08/30 13:22:59;;;;;;;6.67;5.13;;;;;36.90;98899.00;;;;16588904;28;20234;-49
2022/08/30 13:31:03;;;;;;;5.20;4.80;;;;;36.10;98890.00;;;;16592030;28;20599;-50
2022/08/30 13:39:06;;;;;;;4.97;4.57;;;;;35.80;98875.00;;;;16588947;28;20606;-49
2022/08/30 13:47:10;;;;;;;5.33;4.93;;;;;36.60;98872.00;;;;16588060;28;20260;-49
2022/08/30 13:55:13;;;;;;;6.10;5.60;;;;;36.50;98865.00;;;;16588910;28;20361;-49
2022/08/30 14:03:17;;;;;;;6.87;6.17;;;;;34.20;98862.00;;;;16590881;28;20241;-50
2022/08/30 14:11:21;;;;;;;5.13;4.63;;;;;35.80;98857.00;;;;16592110;28;20707;-50
2022/08/30 14:19:25;;;;;;;5.87;5.27;;;;;35.80;98845.00;;;;16587389;28;20219;-49
2022/08/30 14:27:27;;;;;;;5.83;5.43;;;;;34.90;98844.00;;;;16586735;28;20219;-49
2022/08/30 14:35:31;;;;;;;5.80;5.40;;;;;33.50;98832.00;;;;16586220;28;20231;-49
2022/08/30 14:43:34;;;;;;;6.07;5.57;;;;;34.40;98830.00;;;;16587810;28;20767;-48
2022/08/30 14:51:38;;;;;;;5.00;4.70;;;;;34.70;98824.00;;;;16599272;28;20230;-50
2022/08/30 14:59:40;;;;;;;5.63;5.13;;;;;36.30;98822.00;;;;16598388;28;20309;-49
2022/08/30 15:07:45;;;;;;;6.80;5.60;;;;;36.00;98824.00;;;;16597841;28;20321;-49
2022/08/30 15:15:48;;;;;;;5.70;5.30;;;;;35.30;98823.00;;;;16596294;28;20321;-49
2022/08/30 15:23:52;;;;;;;6.77;6.20;;;;;34.30;98810.00;;;;16654788;28;20222;-48
2022/08/30 15:31:54;;;;;;;8.03;7.33;;;;;33.70;98816.00;;;;16629758;28;20350;-49
2022/08/30 15:39:58;;;;;;;7.73;7.00;;;;;32.40;98819.00;;;;16596442;28;20223;-48
2022/08/30 15:48:01;;;;;;;5.70;5.30;;;;;34.90;98816.00;;;;16595898;28;20718;-49
2022/08/30 16:04:18;;;;;;;6.80;6.30;;;;;37.70;98797.00;;;;16568074;28;20211;-74
2022/08/30 16:12:22;;;;;;;7.23;6.60;;;;;34.10;98796.00;;;;16582783;28;20305;-74
2022/08/30 16:20:24;;;;;;;7.37;6.77;;;;;34.10;98786.00;;;;16592964;28;20307;-74
2022/08/30 16:28:28;;;;;;;6.77;6.27;;;;;33.80;98797.00;;;;16628842;28;20309;-74
2022/08/30 16:36:32;;;;;;;7.27;6.67;;;;;34.50;98794.00;;;;16644928;28;20341;-73
2022/08/30 16:44:36;;;;;;;7.00;6.50;;;;;33.20;98781.00;;;;16656139;28;20281;-73
2022/08/30 16:52:38;;;;;;;6.60;6.00;;;;;33.60;98776.00;;;;16655412;28;20297;-73
2022/08/30 17:00:42;;;;;;;8.20;7.40;;;;;33.10;98771.00;;;;16654225;28;20258;-73
2022/08/30 17:08:45;;;;;;;7.00;6.30;;;;;32.60;98780.00;;;;16638241;28;20302;-73
2022/08/30 17:16:49;;;;;;;7.87;7.27;;;;;32.00;98795.00;;;;16589780;28;20723;-73
2022/08/30 17:24:52;;;;;;;7.30;6.77;;;;;31.60;98797.00;;;;16588768;28;20257;-73
2022/08/30 17:32:56;;;;;;;7.70;7.00;;;;;31.60;98813.00;;;;16588409;28;20314;-73
2022/08/30 17:41:02;;;;;;;7.70;7.10;;;;;31.40;98826.00;;;;16638740;28;20317;-73
2022/08/30 17:49:06;;;;;;;8.67;7.87;;;;;31.20;98826.00;;;;16676499;22;20241;-49
2022/08/30 17:57:10;;;;;;;7.33;6.70;;;;;30.90;98840.00;;;;16695395;28;20230;-49
2022/08/30 18:05:14;;;;;;;7.70;6.27;;;;;30.40;98831.00;;;;16638811;28;20705;-49
2022/08/30 18:13:16;;;;;;;8.83;7.97;;;;;30.40;98844.00;;;;16641897;28;20317;-49
2022/08/30 18:21:20;;;;;;;8.07;7.17;;;;;29.90;98838.00;;;;16649943;28;20211;-49
2022/08/30 18:29:23;;;;;;;9.00;8.07;;;;;30.10;98848.00;;;;16641742;28;20219;-49
2022/08/30 18:37:27;;;;;;;7.97;7.17;;;;;29.70;98863.00;;;;16638940;28;20321;-49
2022/08/30 18:45:29;;;;;;;9.17;7.77;;;;;29.40;98872.00;;;;16650584;28;20194;-49
2022/08/30 18:53:34;;;;;;;8.43;7.60;;;;;28.70;98885.00;;;;16648792;28;20858;-49
2022/08/30 19:01:36;;;;;;;10.30;7.43;;;;;28.30;98881.00;;;;16627733;28;20248;-49
2022/08/30 19:09:40;;;;;;;7.50;6.80;;;;;28.50;98884.00;;;;16630756;28;20298;-48
2022/08/30 19:17:44;;;;;;;7.77;6.97;;;;;28.30;98888.00;;;;16649276;28;20226;-48
2022/08/30 19:25:48;;;;;;;6.13;5.63;;;;;28.20;98890.00;;;;16630631;28;20274;-49
2022/08/30 19:33:51;;;;;;;6.80;5.60;;;;;28.00;98902.00;;;;16588159;28;20233;-49
2022/08/30 19:41:54;;;;;;;5.13;4.70;;;;;28.00;98909.00;;;;16650554;28;20218;-47
2022/08/30 19:49:57;;;;;;;8.23;6.57;;;;;25.20;98919.00;;;;16659700;28;20258;-49
2022/08/30 19:58:01;;;;;;;10.53;7.40;;;;;25.20;98921.00;;;;16656742;28;20325;-49
2022/08/30 20:06:03;;;;;;;6.73;6.23;;;;;24.60;98917.00;;;;16653750;28;20278;-49
2022/08/30 20:14:09;;;;;;;6.60;5.90;;;;;24.70;98922.00;;;;16649728;28;20252;-48
2022/08/30 20:22:12;;;;;;;6.77;6.20;;;;;24.30;98925.00;;;;16656643;28;20241;-48
2022/08/30 20:30:17;;;;;;;5.83;5.33;;;;;24.20;98921.00;;;;16657139;28;20312;-48
2022/08/30 20:38:20;;;;;;;4.67;4.30;;;;;25.20;98914.00;;;;16644360;28;20253;-48
2022/08/30 20:46:24;;;;;;;5.87;5.37;;;;;24.70;98905.00;;;;16655306;28;20659;-48
2022/08/30 20:54:26;;;;;;;6.53;5.10;;;;;25.20;98895.00;;;;16655042;28;20396;-48
2022/08/30 21:02:31;;;;;;;6.47;5.10;;;;;24.10;98904.00;;;;16609953;28;20595;-50
2022/08/30 21:10:34;;;;;;;6.03;4.93;;;;;24.00;98902.00;;;;16634672;28;20317;-48
2022/08/30 21:18:38;;;;;;;4.40;4.00;;;;;23.60;98905.00;;;;16652864;28;20227;-49
2022/08/30 21:26:42;;;;;;;5.10;4.70;;;;;23.50;98900.00;;;;16589495;28;20695;-49
2022/08/30 21:43:06;;;;;;;5.40;4.90;;;;;23.30;98916.00;;;;16645807;28;20284;-48
2022/08/30 21:51:11;;;;;;;6.03;5.43;;;;;23.40;98910.00;;;;16652948;28;20309;-49
2022/08/30 21:59:14;;;;;;;5.93;5.30;;;;;23.20;98911.00;;;;16688662;22;20248;-82
2022/08/30 22:07:18;;;;;;;5.67;5.07;;;;;23.20;98920.00;;;;16738523;28;20252;-82
2022/08/30 22:15:21;;;;;;;5.10;4.60;;;;;23.10;98922.00;;;;16721413;28;20306;-82
2022/08/30 22:23:25;;;;;;;6.50;5.33;;;;;22.90;98930.00;;;;16724712;28;20237;-82
2022/08/30 22:31:27;;;;;;;5.83;5.17;;;;;22.90;98935.00;;;;16743948;28;20697;-82
2022/08/30 22:39:31;;;;;;;5.00;4.60;;;;;23.20;98927.00;;;;16708719;28;20272;-81
2022/08/30 22:47:33;;;;;;;7.33;4.80;;;;;23.10;98921.00;;;;16748304;28;20599;-81
2022/08/30 22:55:40;;;;;;;5.33;4.90;;;;;22.80;98934.00;;;;16719379;28;20214;-81
2022/08/30 23:03:42;;;;;;;4.90;4.50;;;;;22.70;98945.00;;;;16718013;28;20230;-81
2022/08/30 23:11:46;;;;;;;5.20;4.70;;;;;23.40;98941.00;;;;16712698;28;20221;-81
2022/08/30 23:19:48;;;;;;;8.83;4.97;;;;;23.40;98947.00;;;;16764456;28;20282;-82
